sensor_id;sensor_type;location;lat;lon;timestamp;temperature;humidity
20171;DHT22;10245;51.344;6.620;2024-01-11T00:01:01;-3.10;77.00
20171;DHT22;10245;51.344;6.620;2024-01-11T00:03:24;-3.10;77.50
20171;DHT22;10245;51.344;6.620;2024-01-11T00:05:48;-3.10;77.20
20171;DHT22;10245;51.344;6.620;2024-01-11T00:08:11;-3.10;76.70
20171;DHT22;10245;51.344;6.620;2024-01-11T00:10:35;-3.00;77.40
20171;DHT22;10245;51.344;6.620;2024-01-11T00:12:58;-3.00;77.40
20171;DHT22;10245;51.344;6.620;2024-01-11T00:15:22;-3.00;77.30
20171;DHT22;10245;51.344;6.620;2024-01-11T00:17:46;-3.00;77.20
20171;DHT22;10245;51.344;6.620;2024-01-11T00:20:10;-3.10;77.40
20171;DHT22;10245;51.344;6.620;2024-01-11T00:22:34;-3.20;77.20
20171;DHT22;10245;51.344;6.620;2024-01-11T00:24:57;-3.10;76.80
20171;DHT22;10245;51.344;6.620;2024-01-11T00:27:20;-3.20;77.20
20171;DHT22;10245;51.344;6.620;2024-01-11T00:29:43;-3.20;77.20
20171;DHT22;10245;51.344;6.620;2024-01-11T00:32:09;-3.10;76.80
20171;DHT22;10245;51.344;6.620;2024-01-11T00:34:32;-3.20;76.50
20171;DHT22;10245;51.344;6.620;2024-01-11T00:36:57;-3.20;76.60
20171;DHT22;10245;51.344;6.620;2024-01-11T00:39:21;-3.20;76.50
20171;DHT22;10245;51.344;6.620;2024-01-11T00:41:44;-3.30;76.80
20171;DHT22;10245;51.344;6.620;2024-01-11T00:44:07;-3.40;76.50
20171;DHT22;10245;51.344;6.620;2024-01-11T00:46:31;-3.40;77.20
20171;DHT22;10245;51.344;6.620;2024-01-11T00:48:56;-3.40;77.40
20171;DHT22;10245;51.344;6.620;2024-01-11T00:51:19;-3.40;77.20
20171;DHT22;10245;51.344;6.620;2024-01-11T00:53:43;-3.40;78.00
20171;DHT22;10245;51.344;6.620;2024-01-11T00:56:15;-3.40;78.10
20171;DHT22;10245;51.344;6.620;2024-01-11T00:58:38;-3.40;78.00
20171;DHT22;10245;51.344;6.620;2024-01-11T01:01:02;-3.40;78.30
20171;DHT22;10245;51.344;6.620;2024-01-11T01:03:28;-3.60;78.20
20171;DHT22;10245;51.344;6.620;2024-01-11T01:05:53;-3.50;79.00
20171;DHT22;10245;51.344;6.620;2024-01-11T01:08:17;-3.60;79.10
20171;DHT22;10245;51.344;6.620;2024-01-11T01:10:40;-3.70;79.30
20171;DHT22;10245;51.344;6.620;2024-01-11T01:13:03;-3.70;80.00
20171;DHT22;10245;51.344;6.620;2024-01-11T01:15:27;-3.80;79.80
20171;DHT22;10245;51.344;6.620;2024-01-11T01:17:50;-3.80;80.10
20171;DHT22;10245;51.344;6.620;2024-01-11T01:20:14;-3.90;80.00
20171;DHT22;10245;51.344;6.620;2024-01-11T01:22:39;-3.80;80.30
20171;DHT22;10245;51.344;6.620;2024-01-11T01:25:04;-3.90;80.40
20171;DHT22;10245;51.344;6.620;2024-01-11T01:27:28;-3.90;80.40
20171;DHT22;10245;51.344;6.620;2024-01-11T01:29:51;-3.90;80.70
20171;DHT22;10245;51.344;6.620;2024-01-11T01:32:15;-3.90;80.70
20171;DHT22;10245;51.344;6.620;2024-01-11T01:34:38;-3.90;80.30
20171;DHT22;10245;51.344;6.620;2024-01-11T01:37:07;-3.90;80.60
20171;DHT22;10245;51.344;6.620;2024-01-11T01:39:31;-4.00;80.80
20171;DHT22;10245;51.344;6.620;2024-01-11T01:41:55;-4.00;81.40
20171;DHT22;10245;51.344;6.620;2024-01-11T01:44:18;-3.90;80.90
20171;DHT22;10245;51.344;6.620;2024-01-11T01:46:41;-4.00;80.70
20171;DHT22;10245;51.344;6.620;2024-01-11T01:49:05;-4.00;80.80
20171;DHT22;10245;51.344;6.620;2024-01-11T01:51:29;-4.00;81.00
20171;DHT22;10245;51.344;6.620;2024-01-11T01:53:54;-3.90;81.30
20171;DHT22;10245;51.344;6.620;2024-01-11T01:56:19;-4.00;80.70
20171;DHT22;10245;51.344;6.620;2024-01-11T01:58:43;-4.00;81.10
20171;DHT22;10245;51.344;6.620;2024-01-11T02:01:11;-4.10;80.90
20171;DHT22;10245;51.344;6.620;2024-01-11T02:03:35;-4.00;80.80
20171;DHT22;10245;51.344;6.620;2024-01-11T02:06:00;-4.10;80.50
20171;DHT22;10245;51.344;6.620;2024-01-11T02:08:24;-4.10;80.70
20171;DHT22;10245;51.344;6.620;2024-01-11T02:10:48;-4.10;81.10
20171;DHT22;10245;51.344;6.620;2024-01-11T02:13:13;-4.10;80.60
20171;DHT22;10245;51.344;6.620;2024-01-11T02:15:36;-4.20;80.70
20171;DHT22;10245;51.344;6.620;2024-01-11T02:18:00;-4.00;80.90
20171;DHT22;10245;51.344;6.620;2024-01-11T02:20:23;-4.00;80.30
20171;DHT22;10245;51.344;6.620;2024-01-11T02:22:50;-4.10;79.80
20171;DHT22;10245;51.344;6.620;2024-01-11T02:25:18;-4.10;80.50
20171;DHT22;10245;51.344;6.620;2024-01-11T02:27:47;-4.20;80.60
20171;DHT22;10245;51.344;6.620;2024-01-11T02:30:12;-4.20;81.20
20171;DHT22;10245;51.344;6.620;2024-01-11T02:32:36;-4.20;80.90
20171;DHT22;10245;51.344;6.620;2024-01-11T02:34:59;-4.20;81.10
20171;DHT22;10245;51.344;6.620;2024-01-11T02:37:23;-4.30;81.10
20171;DHT22;10245;51.344;6.620;2024-01-11T02:39:46;-4.20;81.20
20171;DHT22;10245;51.344;6.620;2024-01-11T02:42:11;-4.30;80.90
20171;DHT22;10245;51.344;6.620;2024-01-11T02:44:34;-4.30;80.70
20171;DHT22;10245;51.344;6.620;2024-01-11T02:46:58;-4.30;81.00
20171;DHT22;10245;51.344;6.620;2024-01-11T02:49:22;-4.20;81.20
20171;DHT22;10245;51.344;6.620;2024-01-11T02:51:45;-4.30;80.90
20171;DHT22;10245;51.344;6.620;2024-01-11T02:54:09;-4.30;80.70
20171;DHT22;10245;51.344;6.620;2024-01-11T02:56:32;-4.60;80.80
20171;DHT22;10245;51.344;6.620;2024-01-11T02:58:57;-4.40;81.60
20171;DHT22;10245;51.344;6.620;2024-01-11T03:01:20;-4.40;81.40
20171;DHT22;10245;51.344;6.620;2024-01-11T03:03:43;-4.40;81.60
20171;DHT22;10245;51.344;6.620;2024-01-11T03:06:08;-4.30;81.80
20171;DHT22;10245;51.344;6.620;2024-01-11T03:08:33;-4.20;81.80
20171;DHT22;10245;51.344;6.620;2024-01-11T03:10:56;-4.30;81.60
20171;DHT22;10245;51.344;6.620;2024-01-11T03:13:20;-4.40;81.80
20171;DHT22;10245;51.344;6.620;2024-01-11T03:15:45;-4.30;82.00
20171;DHT22;10245;51.344;6.620;2024-01-11T03:18:09;-4.40;81.60
20171;DHT22;10245;51.344;6.620;2024-01-11T03:20:35;-4.50;81.70
20171;DHT22;10245;51.344;6.620;2024-01-11T03:22:59;-4.50;81.50
20171;DHT22;10245;51.344;6.620;2024-01-11T03:25:22;-4.50;81.50
20171;DHT22;10245;51.344;6.620;2024-01-11T03:27:46;-4.50;81.70
20171;DHT22;10245;51.344;6.620;2024-01-11T03:30:09;-4.60;81.90
20171;DHT22;10245;51.344;6.620;2024-01-11T03:32:34;-4.50;82.10
20171;DHT22;10245;51.344;6.620;2024-01-11T03:34:59;-4.60;82.40
20171;DHT22;10245;51.344;6.620;2024-01-11T03:37:22;-4.50;82.20
20171;DHT22;10245;51.344;6.620;2024-01-11T03:39:45;-4.60;81.80
20171;DHT22;10245;51.344;6.620;2024-01-11T03:42:08;-4.60;82.30
20171;DHT22;10245;51.344;6.620;2024-01-11T03:44:32;-4.70;82.10
20171;DHT22;10245;51.344;6.620;2024-01-11T03:46:56;-4.70;82.10
20171;DHT22;10245;51.344;6.620;2024-01-11T03:49:21;-4.80;82.10
20171;DHT22;10245;51.344;6.620;2024-01-11T03:51:44;-4.70;82.10
20171;DHT22;10245;51.344;6.620;2024-01-11T03:54:07;-4.80;82.20
20171;DHT22;10245;51.344;6.620;2024-01-11T03:56:31;-4.70;82.60
20171;DHT22;10245;51.344;6.620;2024-01-11T03:58:54;-4.60;82.70
20171;DHT22;10245;51.344;6.620;2024-01-11T04:01:17;-4.80;82.10
20171;DHT22;10245;51.344;6.620;2024-01-11T04:03:42;-4.80;82.50
20171;DHT22;10245;51.344;6.620;2024-01-11T04:06:06;-4.80;82.60
20171;DHT22;10245;51.344;6.620;2024-01-11T04:08:30;-4.70;82.40
20171;DHT22;10245;51.344;6.620;2024-01-11T04:10:53;-4.70;82.30
20171;DHT22;10245;51.344;6.620;2024-01-11T04:13:17;-4.70;82.50
20171;DHT22;10245;51.344;6.620;2024-01-11T04:15:41;-4.80;82.50
20171;DHT22;10245;51.344;6.620;2024-01-11T04:18:05;-4.90;82.30
20171;DHT22;10245;51.344;6.620;2024-01-11T04:20:31;-4.90;82.60
20171;DHT22;10245;51.344;6.620;2024-01-11T04:22:55;-4.70;82.70
20171;DHT22;10245;51.344;6.620;2024-01-11T04:25:19;-4.70;82.50
20171;DHT22;10245;51.344;6.620;2024-01-11T04:27:43;-4.60;82.40
20171;DHT22;10245;51.344;6.620;2024-01-11T04:30:07;-4.60;82.30
20171;DHT22;10245;51.344;6.620;2024-01-11T04:32:31;-4.70;82.00
20171;DHT22;10245;51.344;6.620;2024-01-11T04:34:54;-4.60;81.90
20171;DHT22;10245;51.344;6.620;2024-01-11T04:37:18;-4.50;81.90
20171;DHT22;10245;51.344;6.620;2024-01-11T04:39:43;-4.50;82.10
20171;DHT22;10245;51.344;6.620;2024-01-11T04:42:06;-4.60;81.80
20171;DHT22;10245;51.344;6.620;2024-01-11T04:44:30;-4.50;82.20
20171;DHT22;10245;51.344;6.620;2024-01-11T04:46:53;-4.50;82.00
20171;DHT22;10245;51.344;6.620;2024-01-11T04:49:16;-4.60;81.70
20171;DHT22;10245;51.344;6.620;2024-01-11T04:51:40;-4.50;82.00
20171;DHT22;10245;51.344;6.620;2024-01-11T04:54:03;-4.50;82.10
20171;DHT22;10245;51.344;6.620;2024-01-11T04:56:28;-4.60;82.00
20171;DHT22;10245;51.344;6.620;2024-01-11T04:58:52;-4.60;82.00
20171;DHT22;10245;51.344;6.620;2024-01-11T05:01:17;-4.60;82.20
20171;DHT22;10245;51.344;6.620;2024-01-11T05:03:40;-4.60;82.20
20171;DHT22;10245;51.344;6.620;2024-01-11T05:06:04;-4.70;81.50
20171;DHT22;10245;51.344;6.620;2024-01-11T05:08:29;-4.70;81.90
20171;DHT22;10245;51.344;6.620;2024-01-11T05:10:52;-4.70;81.60
20171;DHT22;10245;51.344;6.620;2024-01-11T05:13:17;-4.80;81.70
20171;DHT22;10245;51.344;6.620;2024-01-11T05:15:40;-4.80;81.90
20171;DHT22;10245;51.344;6.620;2024-01-11T05:18:05;-4.80;82.10
20171;DHT22;10245;51.344;6.620;2024-01-11T05:20:28;-4.90;81.50
20171;DHT22;10245;51.344;6.620;2024-01-11T05:22:51;-4.80;82.30
20171;DHT22;10245;51.344;6.620;2024-01-11T05:25:15;-4.80;82.30
20171;DHT22;10245;51.344;6.620;2024-01-11T05:27:39;-4.80;82.20
20171;DHT22;10245;51.344;6.620;2024-01-11T05:30:04;-4.90;81.80
20171;DHT22;10245;51.344;6.620;2024-01-11T05:32:29;-5.00;81.80
20171;DHT22;10245;51.344;6.620;2024-01-11T05:34:52;-4.80;82.10
20171;DHT22;10245;51.344;6.620;2024-01-11T05:37:16;-4.90;81.90
20171;DHT22;10245;51.344;6.620;2024-01-11T05:39:40;-4.80;82.00
20171;DHT22;10245;51.344;6.620;2024-01-11T05:42:04;-4.90;81.30
20171;DHT22;10245;51.344;6.620;2024-01-11T05:44:27;-4.90;82.30
20171;DHT22;10245;51.344;6.620;2024-01-11T05:46:52;-4.90;82.40
20171;DHT22;10245;51.344;6.620;2024-01-11T05:49:15;-4.90;82.40
20171;DHT22;10245;51.344;6.620;2024-01-11T05:51:38;-4.90;82.20
20171;DHT22;10245;51.344;6.620;2024-01-11T05:54:02;-4.90;82.40
20171;DHT22;10245;51.344;6.620;2024-01-11T05:56:26;-4.90;82.30
20171;DHT22;10245;51.344;6.620;2024-01-11T05:58:49;-4.90;82.20
20171;DHT22;10245;51.344;6.620;2024-01-11T06:01:12;-5.00;82.30
20171;DHT22;10245;51.344;6.620;2024-01-11T06:03:37;-4.90;82.10
20171;DHT22;10245;51.344;6.620;2024-01-11T06:06:03;-5.00;81.30
20171;DHT22;10245;51.344;6.620;2024-01-11T06:08:28;-4.90;82.20
20171;DHT22;10245;51.344;6.620;2024-01-11T06:10:52;-5.00;82.30
20171;DHT22;10245;51.344;6.620;2024-01-11T06:13:15;-5.00;82.20
20171;DHT22;10245;51.344;6.620;2024-01-11T06:15:40;-4.90;82.20
20171;DHT22;10245;51.344;6.620;2024-01-11T06:18:04;-5.00;82.00
20171;DHT22;10245;51.344;6.620;2024-01-11T06:20:29;-5.00;82.30
20171;DHT22;10245;51.344;6.620;2024-01-11T06:22:52;-5.00;82.20
20171;DHT22;10245;51.344;6.620;2024-01-11T06:25:15;-5.00;81.50
20171;DHT22;10245;51.344;6.620;2024-01-11T06:27:39;-4.90;81.80
20171;DHT22;10245;51.344;6.620;2024-01-11T06:30:02;-5.10;81.40
20171;DHT22;10245;51.344;6.620;2024-01-11T06:32:26;-5.10;81.90
20171;DHT22;10245;51.344;6.620;2024-01-11T06:34:50;-5.30;81.70
20171;DHT22;10245;51.344;6.620;2024-01-11T06:37:15;-5.20;82.10
20171;DHT22;10245;51.344;6.620;2024-01-11T06:39:38;-5.10;82.50
20171;DHT22;10245;51.344;6.620;2024-01-11T06:42:02;-5.10;82.40
20171;DHT22;10245;51.344;6.620;2024-01-11T06:44:26;-5.00;82.50
20171;DHT22;10245;51.344;6.620;2024-01-11T06:46:50;-5.00;81.80
20171;DHT22;10245;51.344;6.620;2024-01-11T06:49:13;-5.00;81.80
20171;DHT22;10245;51.344;6.620;2024-01-11T06:51:37;-5.20;81.60
20171;DHT22;10245;51.344;6.620;2024-01-11T06:54:02;-5.10;82.10
20171;DHT22;10245;51.344;6.620;2024-01-11T06:56:27;-5.00;82.40
20171;DHT22;10245;51.344;6.620;2024-01-11T06:58:50;-4.90;82.30
20171;DHT22;10245;51.344;6.620;2024-01-11T07:01:14;-5.00;82.40
20171;DHT22;10245;51.344;6.620;2024-01-11T07:03:37;-5.00;81.80
20171;DHT22;10245;51.344;6.620;2024-01-11T07:06:01;-5.10;81.50
20171;DHT22;10245;51.344;6.620;2024-01-11T07:08:25;-5.10;82.10
20171;DHT22;10245;51.344;6.620;2024-01-11T07:10:50;-5.20;82.20
20171;DHT22;10245;51.344;6.620;2024-01-11T07:13:13;-5.10;82.40
20171;DHT22;10245;51.344;6.620;2024-01-11T07:15:38;-5.20;81.70
20171;DHT22;10245;51.344;6.620;2024-01-11T07:18:02;-5.10;82.10
20171;DHT22;10245;51.344;6.620;2024-01-11T07:20:25;-5.20;82.10
20171;DHT22;10245;51.344;6.620;2024-01-11T07:22:49;-5.20;82.10
20171;DHT22;10245;51.344;6.620;2024-01-11T07:25:13;-5.20;82.00
20171;DHT22;10245;51.344;6.620;2024-01-11T07:27:38;-5.20;82.30
20171;DHT22;10245;51.344;6.620;2024-01-11T07:30:01;-5.10;82.30
20171;DHT22;10245;51.344;6.620;2024-01-11T07:32:25;-5.10;82.40
20171;DHT22;10245;51.344;6.620;2024-01-11T07:34:48;-5.10;82.10
20171;DHT22;10245;51.344;6.620;2024-01-11T07:37:12;-5.20;81.90
20171;DHT22;10245;51.344;6.620;2024-01-11T07:39:35;-5.10;82.10
20171;DHT22;10245;51.344;6.620;2024-01-11T07:41:58;-5.20;82.20
20171;DHT22;10245;51.344;6.620;2024-01-11T07:44:24;-5.20;81.80
20171;DHT22;10245;51.344;6.620;2024-01-11T07:46:47;-5.20;82.10
20171;DHT22;10245;51.344;6.620;2024-01-11T07:49:15;-5.00;82.40
20171;DHT22;10245;51.344;6.620;2024-01-11T07:51:40;-5.00;81.90
20171;DHT22;10245;51.344;6.620;2024-01-11T07:54:03;-4.90;82.30
20171;DHT22;10245;51.344;6.620;2024-01-11T07:56:27;-5.00;81.70
20171;DHT22;10245;51.344;6.620;2024-01-11T07:58:50;-5.00;81.80
20171;DHT22;10245;51.344;6.620;2024-01-11T08:01:15;-5.00;81.60
20171;DHT22;10245;51.344;6.620;2024-01-11T08:03:39;-5.00;82.00
20171;DHT22;10245;51.344;6.620;2024-01-11T08:06:04;-5.00;82.00
20171;DHT22;10245;51.344;6.620;2024-01-11T08:08:29;-4.90;82.40
20171;DHT22;10245;51.344;6.620;2024-01-11T08:10:53;-4.90;82.30
20171;DHT22;10245;51.344;6.620;2024-01-11T08:13:16;-4.80;82.30
20171;DHT22;10245;51.344;6.620;2024-01-11T08:15:41;-4.90;82.00
20171;DHT22;10245;51.344;6.620;2024-01-11T08:18:05;-4.80;82.10
20171;DHT22;10245;51.344;6.620;2024-01-11T08:20:29;-4.80;82.00
20171;DHT22;10245;51.344;6.620;2024-01-11T08:22:52;-4.80;81.30
20171;DHT22;10245;51.344;6.620;2024-01-11T08:25:15;-4.60;81.50
20171;DHT22;10245;51.344;6.620;2024-01-11T08:27:39;-4.70;80.60
20171;DHT22;10245;51.344;6.620;2024-01-11T08:30:04;-4.70;81.20
20171;DHT22;10245;51.344;6.620;2024-01-11T08:32:30;-4.70;81.10
20171;DHT22;10245;51.344;6.620;2024-01-11T08:34:56;-4.60;81.70
20171;DHT22;10245;51.344;6.620;2024-01-11T08:37:20;-4.60;81.00
20171;DHT22;10245;51.344;6.620;2024-01-11T08:39:44;-4.60;81.10
20171;DHT22;10245;51.344;6.620;2024-01-11T08:42:09;-4.50;80.80
20171;DHT22;10245;51.344;6.620;2024-01-11T08:44:33;-4.50;80.90
20171;DHT22;10245;51.344;6.620;2024-01-11T08:46:57;-4.40;80.80
20171;DHT22;10245;51.344;6.620;2024-01-11T08:49:21;-4.30;81.40
20171;DHT22;10245;51.344;6.620;2024-01-11T08:51:45;-4.40;81.70
20171;DHT22;10245;51.344;6.620;2024-01-11T08:54:09;-4.40;81.20
20171;DHT22;10245;51.344;6.620;2024-01-11T08:56:34;-4.40;81.00
20171;DHT22;10245;51.344;6.620;2024-01-11T08:58:57;-4.30;81.40
20171;DHT22;10245;51.344;6.620;2024-01-11T09:01:21;-4.40;80.80
20171;DHT22;10245;51.344;6.620;2024-01-11T09:03:47;-4.40;80.60
20171;DHT22;10245;51.344;6.620;2024-01-11T09:06:10;-4.40;80.40
20171;DHT22;10245;51.344;6.620;2024-01-11T09:08:36;-4.40;80.60
20171;DHT22;10245;51.344;6.620;2024-01-11T09:10:59;-4.40;80.80
20171;DHT22;10245;51.344;6.620;2024-01-11T09:13:24;-4.20;81.70
20171;DHT22;10245;51.344;6.620;2024-01-11T09:15:48;-4.30;80.70
20171;DHT22;10245;51.344;6.620;2024-01-11T09:18:12;-4.30;80.70
20171;DHT22;10245;51.344;6.620;2024-01-11T09:20:38;-4.30;80.90
20171;DHT22;10245;51.344;6.620;2024-01-11T09:23:01;-4.00;81.60
20171;DHT22;10245;51.344;6.620;2024-01-11T09:25:27;-3.90;81.20
20171;DHT22;10245;51.344;6.620;2024-01-11T09:27:50;-3.80;81.10
20171;DHT22;10245;51.344;6.620;2024-01-11T09:30:14;-3.70;80.90
20171;DHT22;10245;51.344;6.620;2024-01-11T09:32:37;-3.70;80.60
20171;DHT22;10245;51.344;6.620;2024-01-11T09:35:01;-3.80;80.20
20171;DHT22;10245;51.344;6.620;2024-01-11T09:37:26;-3.80;80.30
20171;DHT22;10245;51.344;6.620;2024-01-11T09:39:49;-3.60;80.00
20171;DHT22;10245;51.344;6.620;2024-01-11T09:42:14;-3.60;80.10
20171;DHT22;10245;51.344;6.620;2024-01-11T09:44:38;-3.50;79.70
20171;DHT22;10245;51.344;6.620;2024-01-11T09:47:02;-3.40;79.40
20171;DHT22;10245;51.344;6.620;2024-01-11T09:49:27;-3.40;79.30
20171;DHT22;10245;51.344;6.620;2024-01-11T09:51:54;-3.40;79.00
20171;DHT22;10245;51.344;6.620;2024-01-11T09:54:19;-3.30;79.30
20171;DHT22;10245;51.344;6.620;2024-01-11T09:56:44;-3.20;79.00
20171;DHT22;10245;51.344;6.620;2024-01-11T09:59:09;-3.20;79.30
20171;DHT22;10245;51.344;6.620;2024-01-11T10:01:35;-3.10;78.50
20171;DHT22;10245;51.344;6.620;2024-01-11T10:03:59;-3.00;79.00
20171;DHT22;10245;51.344;6.620;2024-01-11T10:06:24;-3.00;78.50
20171;DHT22;10245;51.344;6.620;2024-01-11T10:08:48;-3.00;78.00
20171;DHT22;10245;51.344;6.620;2024-01-11T10:11:12;-2.90;78.80
20171;DHT22;10245;51.344;6.620;2024-01-11T10:13:36;-2.90;78.20
20171;DHT22;10245;51.344;6.620;2024-01-11T10:16:09;-2.80;78.00
20171;DHT22;10245;51.344;6.620;2024-01-11T10:18:36;-2.80;77.50
20171;DHT22;10245;51.344;6.620;2024-01-11T10:21:00;-2.80;77.90
20171;DHT22;10245;51.344;6.620;2024-01-11T10:23:25;-2.60;78.00
20171;DHT22;10245;51.344;6.620;2024-01-11T10:25:51;-2.50;77.80
20171;DHT22;10245;51.344;6.620;2024-01-11T10:28:15;-2.40;77.70
20171;DHT22;10245;51.344;6.620;2024-01-11T10:30:40;-2.40;77.50
20171;DHT22;10245;51.344;6.620;2024-01-11T10:33:07;-2.40;77.30
20171;DHT22;10245;51.344;6.620;2024-01-11T10:35:30;-2.40;77.30
20171;DHT22;10245;51.344;6.620;2024-01-11T10:37:54;-2.30;77.20
20171;DHT22;10245;51.344;6.620;2024-01-11T10:40:19;-2.30;77.00
20171;DHT22;10245;51.344;6.620;2024-01-11T10:42:49;-2.20;76.80
20171;DHT22;10245;51.344;6.620;2024-01-11T10:45:15;-2.20;76.40
20171;DHT22;10245;51.344;6.620;2024-01-11T10:47:45;-2.10;76.80
20171;DHT22;10245;51.344;6.620;2024-01-11T10:50:24;-2.10;76.60
20171;DHT22;10245;51.344;6.620;2024-01-11T10:53:00;-2.00;76.80
20171;DHT22;10245;51.344;6.620;2024-01-11T10:55:26;-1.90;76.20
20171;DHT22;10245;51.344;6.620;2024-01-11T10:57:53;-1.90;76.70
20171;DHT22;10245;51.344;6.620;2024-01-11T11:00:17;-1.90;76.60
20171;DHT22;10245;51.344;6.620;2024-01-11T11:02:41;-1.90;76.30
20171;DHT22;10245;51.344;6.620;2024-01-11T11:05:07;-1.70;75.70
20171;DHT22;10245;51.344;6.620;2024-01-11T11:07:34;-1.60;75.40
20171;DHT22;10245;51.344;6.620;2024-01-11T11:09:58;-1.60;74.60
20171;DHT22;10245;51.344;6.620;2024-01-11T11:12:23;-1.60;74.00
20171;DHT22;10245;51.344;6.620;2024-01-11T11:14:46;-1.50;73.40
20171;DHT22;10245;51.344;6.620;2024-01-11T11:17:11;-1.40;72.60
20171;DHT22;10245;51.344;6.620;2024-01-11T11:19:34;-1.40;72.70
20171;DHT22;10245;51.344;6.620;2024-01-11T11:22:03;-1.50;72.70
20171;DHT22;10245;51.344;6.620;2024-01-11T11:24:29;-1.30;72.20
20171;DHT22;10245;51.344;6.620;2024-01-11T11:26:53;-1.10;71.10
20171;DHT22;10245;51.344;6.620;2024-01-11T11:29:19;-1.10;71.00
20171;DHT22;10245;51.344;6.620;2024-01-11T11:31:44;-1.10;71.80
20171;DHT22;10245;51.344;6.620;2024-01-11T11:34:11;-1.10;71.90
20171;DHT22;10245;51.344;6.620;2024-01-11T11:36:35;-1.00;71.80
20171;DHT22;10245;51.344;6.620;2024-01-11T11:38:59;-1.00;71.80
20171;DHT22;10245;51.344;6.620;2024-01-11T11:41:24;-0.90;71.70
20171;DHT22;10245;51.344;6.620;2024-01-11T11:43:48;-0.90;71.50
20171;DHT22;10245;51.344;6.620;2024-01-11T11:46:12;-0.80;72.10
20171;DHT22;10245;51.344;6.620;2024-01-11T11:48:48;-0.70;72.30
20171;DHT22;10245;51.344;6.620;2024-01-11T11:51:15;-0.80;71.50
20171;DHT22;10245;51.344;6.620;2024-01-11T11:53:42;-0.70;72.20
20171;DHT22;10245;51.344;6.620;2024-01-11T11:56:06;-0.70;72.00
20171;DHT22;10245;51.344;6.620;2024-01-11T11:58:33;-0.70;72.30
20171;DHT22;10245;51.344;6.620;2024-01-11T12:00:58;-0.50;71.40
20171;DHT22;10245;51.344;6.620;2024-01-11T12:03:23;-0.50;70.40
20171;DHT22;10245;51.344;6.620;2024-01-11T12:05:48;-0.40;70.60
20171;DHT22;10245;51.344;6.620;2024-01-11T12:08:11;-0.40;70.50
20171;DHT22;10245;51.344;6.620;2024-01-11T12:10:34;-0.30;70.00
20171;DHT22;10245;51.344;6.620;2024-01-11T12:12:58;-0.30;70.30
20171;DHT22;10245;51.344;6.620;2024-01-11T12:15:27;-0.20;70.40
20171;DHT22;10245;51.344;6.620;2024-01-11T12:17:57;-0.20;70.80
20171;DHT22;10245;51.344;6.620;2024-01-11T12:20:21;-0.20;69.30
20171;DHT22;10245;51.344;6.620;2024-01-11T12:22:44;-0.20;68.50
20171;DHT22;10245;51.344;6.620;2024-01-11T12:25:07;-0.10;69.80
20171;DHT22;10245;51.344;6.620;2024-01-11T12:27:31;0.00;69.30
20171;DHT22;10245;51.344;6.620;2024-01-11T12:29:54;0.00;68.60
20171;DHT22;10245;51.344;6.620;2024-01-11T12:32:22;0.00;67.90
20171;DHT22;10245;51.344;6.620;2024-01-11T12:34:46;0.00;68.00
20171;DHT22;10245;51.344;6.620;2024-01-11T12:37:10;0.00;69.00
20171;DHT22;10245;51.344;6.620;2024-01-11T12:39:33;0.00;67.20
20171;DHT22;10245;51.344;6.620;2024-01-11T12:42:00;0.00;66.90
20171;DHT22;10245;51.344;6.620;2024-01-11T12:44:24;0.00;68.50
20171;DHT22;10245;51.344;6.620;2024-01-11T12:46:48;0.00;68.40
20171;DHT22;10245;51.344;6.620;2024-01-11T12:49:13;0.10;67.40
20171;DHT22;10245;51.344;6.620;2024-01-11T12:51:37;0.20;67.20
20171;DHT22;10245;51.344;6.620;2024-01-11T12:54:01;0.30;68.20
20171;DHT22;10245;51.344;6.620;2024-01-11T12:56:26;0.20;69.10
20171;DHT22;10245;51.344;6.620;2024-01-11T12:58:49;0.30;68.30
20171;DHT22;10245;51.344;6.620;2024-01-11T13:01:13;0.10;68.40
20171;DHT22;10245;51.344;6.620;2024-01-11T13:03:39;0.20;68.30
20171;DHT22;10245;51.344;6.620;2024-01-11T13:06:05;0.40;67.70
20171;DHT22;10245;51.344;6.620;2024-01-11T13:08:31;0.50;67.20
20171;DHT22;10245;51.344;6.620;2024-01-11T13:10:56;0.40;67.00
20171;DHT22;10245;51.344;6.620;2024-01-11T13:13:20;0.30;67.60
20171;DHT22;10245;51.344;6.620;2024-01-11T13:15:43;0.30;65.90
20171;DHT22;10245;51.344;6.620;2024-01-11T13:18:07;0.30;66.70
20171;DHT22;10245;51.344;6.620;2024-01-11T13:20:31;0.30;68.00
20171;DHT22;10245;51.344;6.620;2024-01-11T13:23:14;0.30;65.90
20171;DHT22;10245;51.344;6.620;2024-01-11T13:25:39;0.20;65.90
20171;DHT22;10245;51.344;6.620;2024-01-11T13:28:02;0.30;67.60
20171;DHT22;10245;51.344;6.620;2024-01-11T13:30:26;0.20;67.60
20171;DHT22;10245;51.344;6.620;2024-01-11T13:32:49;0.30;66.00
20171;DHT22;10245;51.344;6.620;2024-01-11T13:35:13;0.20;67.20
20171;DHT22;10245;51.344;6.620;2024-01-11T13:37:36;0.20;64.70
20171;DHT22;10245;51.344;6.620;2024-01-11T13:40:02;0.10;66.30
20171;DHT22;10245;51.344;6.620;2024-01-11T13:42:25;0.20;66.80
20171;DHT22;10245;51.344;6.620;2024-01-11T13:44:48;0.30;63.80
20171;DHT22;10245;51.344;6.620;2024-01-11T13:47:12;0.20;63.10
20171;DHT22;10245;51.344;6.620;2024-01-11T13:49:36;0.20;65.10
20171;DHT22;10245;51.344;6.620;2024-01-11T13:51:59;0.30;65.60
20171;DHT22;10245;51.344;6.620;2024-01-11T13:54:23;0.30;64.70
20171;DHT22;10245;51.344;6.620;2024-01-11T13:56:47;0.20;65.00
20171;DHT22;10245;51.344;6.620;2024-01-11T13:59:11;0.20;65.30
20171;DHT22;10245;51.344;6.620;2024-01-11T14:01:34;0.20;65.60
20171;DHT22;10245;51.344;6.620;2024-01-11T14:03:57;0.20;64.50
20171;DHT22;10245;51.344;6.620;2024-01-11T14:06:24;0.20;64.40
20171;DHT22;10245;51.344;6.620;2024-01-11T14:08:47;0.20;63.40
20171;DHT22;10245;51.344;6.620;2024-01-11T14:11:10;0.30;63.00
20171;DHT22;10245;51.344;6.620;2024-01-11T14:13:35;0.30;62.90
20171;DHT22;10245;51.344;6.620;2024-01-11T14:15:58;0.20;64.10
20171;DHT22;10245;51.344;6.620;2024-01-11T14:18:22;0.20;64.30
20171;DHT22;10245;51.344;6.620;2024-01-11T14:20:46;0.30;64.50
20171;DHT22;10245;51.344;6.620;2024-01-11T14:23:10;0.40;63.30
20171;DHT22;10245;51.344;6.620;2024-01-11T14:25:33;0.50;62.30
20171;DHT22;10245;51.344;6.620;2024-01-11T14:27:57;0.50;62.80
20171;DHT22;10245;51.344;6.620;2024-01-11T14:30:23;0.40;63.00
20171;DHT22;10245;51.344;6.620;2024-01-11T14:32:46;0.40;62.20
20171;DHT22;10245;51.344;6.620;2024-01-11T14:35:09;0.40;63.20
20171;DHT22;10245;51.344;6.620;2024-01-11T14:37:36;0.30;63.30
20171;DHT22;10245;51.344;6.620;2024-01-11T14:40:00;0.30;64.80
20171;DHT22;10245;51.344;6.620;2024-01-11T14:42:24;0.20;65.70
20171;DHT22;10245;51.344;6.620;2024-01-11T14:44:47;0.20;66.80
20171;DHT22;10245;51.344;6.620;2024-01-11T14:47:12;0.20;67.20
20171;DHT22;10245;51.344;6.620;2024-01-11T14:49:37;0.10;67.70
20171;DHT22;10245;51.344;6.620;2024-01-11T14:52:02;0.00;67.80
20171;DHT22;10245;51.344;6.620;2024-01-11T14:54:26;0.10;67.30
20171;DHT22;10245;51.344;6.620;2024-01-11T14:56:50;0.00;67.80
20171;DHT22;10245;51.344;6.620;2024-01-11T14:59:13;0.00;68.20
20171;DHT22;10245;51.344;6.620;2024-01-11T15:01:38;0.00;69.10
20171;DHT22;10245;51.344;6.620;2024-01-11T15:04:02;-0.10;70.10
20171;DHT22;10245;51.344;6.620;2024-01-11T15:06:26;0.00;70.60
20171;DHT22;10245;51.344;6.620;2024-01-11T15:08:50;-0.10;71.30
20171;DHT22;10245;51.344;6.620;2024-01-11T15:11:13;-0.10;71.80
20171;DHT22;10245;51.344;6.620;2024-01-11T15:13:37;0.00;71.80